createdAt,value
2019-05-25T00:00:09.486Z,63.40
2019-05-25T00:02:39.789Z,63.18
2019-05-25T00:05:10.552Z,62.26
2019-05-25T00:07:40.970Z,62.17
2019-05-25T00:10:10.841Z,62.30
2019-05-25T00:12:40.347Z,61.74
2019-05-25T00:15:10.296Z,60.90
2019-05-25T00:17:39.845Z,60.92
2019-05-25T00:20:09.259Z,60.44
2019-05-25T00:22:39.284Z,61.11
2019-05-25T00:25:08.716Z,61.34
2019-05-25T00:27:38.151Z,61.94
2019-05-25T00:30:09.225Z,61.62
2019-05-25T00:32:38.804Z,60.93
2019-05-25T00:35:08.874Z,61.71
2019-05-25T00:37:38.295Z,61.26
2019-05-25T00:40:08.918Z,61.21
2019-05-25T00:42:39.327Z,61.14
2019-05-25T00:45:08.676Z,60.80
2019-05-25T00:47:40.358Z,60.56
2019-05-25T00:50:09.752Z,60.78
2019-05-25T00:52:39.117Z,60.79
2019-05-25T00:55:08.604Z,60.81
2019-05-25T00:57:38.122Z,60.81
2019-05-25T01:00:07.815Z,60.51
2019-05-25T01:02:41.014Z,60.63
2019-05-25T01:05:10.969Z,60.85
2019-05-25T01:07:41.805Z,60.85
2019-05-25T01:10:13.000Z,60.94
2019-05-25T01:12:42.234Z,60.89
2019-05-25T01:15:12.100Z,60.96
2019-05-25T01:17:42.087Z,61.09
2019-05-25T01:20:11.654Z,60.90
2019-05-25T01:22:40.972Z,60.93
2019-05-25T01:25:11.618Z,61.30
2019-05-25T01:27:41.395Z,61.04
2019-05-25T01:30:11.460Z,61.37
2019-05-25T01:32:40.898Z,61.67
2019-05-25T01:35:10.479Z,61.29
2019-05-25T01:37:39.934Z,61.38
2019-05-25T01:40:09.607Z,61.06
2019-05-25T01:42:39.141Z,60.85
2019-05-25T01:45:08.758Z,60.83
2019-05-25T01:47:40.122Z,61.34
2019-05-25T01:50:12.192Z,61.98
2019-05-25T01:52:41.477Z,61.86
2019-05-25T01:55:10.956Z,61.55
2019-05-25T01:57:40.034Z,61.62
2019-05-25T02:00:09.804Z,61.51
2019-05-25T02:02:40.546Z,61.76
2019-05-25T02:05:10.355Z,61.88
2019-05-25T02:07:39.529Z,62.14
2019-05-25T02:10:11.660Z,62.27
2019-05-25T02:12:40.370Z,61.93
2019-05-25T02:15:10.746Z,62.05
2019-05-25T02:17:39.981Z,62.25
2019-05-25T02:20:10.731Z,62.32
2019-05-25T02:22:40.013Z,62.47
2019-05-25T02:25:17.715Z,63.17
2019-05-25T02:27:40.541Z,63.89
2019-05-25T02:30:10.872Z,63.88
2019-05-25T02:32:40.038Z,64.06
2019-05-25T02:35:10.696Z,63.95
2019-05-25T02:37:40.974Z,64.14
2019-05-25T02:40:10.603Z,64.25
2019-05-25T02:42:39.894Z,64.04
2019-05-25T02:45:09.376Z,64.14
2019-05-25T02:47:38.606Z,64.07
2019-05-25T02:50:09.679Z,63.88
2019-05-25T02:52:38.857Z,64.47
2019-05-25T02:55:08.451Z,64.40
2019-05-25T02:57:37.586Z,64.23
2019-05-25T03:00:06.989Z,64.11
2019-05-25T03:02:36.247Z,64.86
2019-05-25T03:05:07.978Z,65.55
2019-05-25T03:07:38.723Z,64.68
2019-05-25T03:10:09.202Z,64.42
2019-05-25T03:12:40.335Z,64.74
2019-05-25T03:15:10.630Z,64.42
2019-05-25T03:17:40.079Z,64.68
2019-05-25T03:20:09.641Z,64.31
2019-05-25T03:22:38.991Z,64.31
2019-05-25T03:25:08.398Z,64.41
2019-05-25T03:27:38.818Z,64.04
2019-05-25T03:30:14.056Z,64.29
2019-05-25T03:32:43.611Z,64.01
2019-05-25T03:35:13.575Z,64.13
2019-05-25T03:37:53.444Z,64.05
2019-05-25T03:40:17.872Z,64.44
2019-05-25T03:42:47.115Z,64.81
2019-05-25T03:45:17.873Z,64.08
2019-05-25T03:47:48.810Z,64.34
2019-05-25T03:50:18.637Z,64.03
2019-05-25T03:52:47.930Z,64.03
2019-05-25T03:55:17.439Z,63.98
2019-05-25T03:57:46.709Z,64.37
2019-05-25T04:00:16.365Z,63.83
2019-05-25T04:02:45.734Z,63.35
2019-05-25T04:05:15.218Z,63.64
2019-05-25T04:07:44.650Z,64.14
2019-05-25T04:10:14.375Z,64.28
2019-05-25T04:12:43.608Z,64.28
2019-05-25T04:15:12.981Z,64.42
2019-05-25T04:17:42.097Z,63.93
2019-05-25T04:20:11.570Z,64.88
2019-05-25T04:22:40.665Z,64.40
2019-05-25T04:25:10.817Z,64.38
2019-05-25T04:27:40.322Z,64.20
2019-05-25T04:30:09.858Z,64.17
2019-05-25T04:32:38.946Z,64.56
2019-05-25T04:35:08.642Z,64.79
2019-05-25T04:37:37.764Z,64.42
2019-05-25T04:40:07.525Z,64.90
2019-05-25T04:42:36.751Z,64.99
2019-05-25T04:45:07.134Z,64.61
2019-05-25T04:47:36.293Z,64.46
2019-05-25T04:50:05.859Z,64.16
2019-05-25T04:52:35.022Z,64.03
2019-05-25T04:55:04.874Z,64.45
2019-05-25T04:57:34.144Z,64.93
2019-05-25T05:00:06.403Z,65.00
2019-05-25T05:02:35.866Z,64.63
2019-05-25T05:05:05.682Z,64.48
2019-05-25T05:07:34.897Z,64.45
2019-05-25T05:10:04.732Z,64.39
2019-05-25T05:12:33.935Z,63.17
2019-05-25T05:15:04.876Z,58.58
2019-05-25T05:17:34.179Z,57.12
2019-05-25T05:20:05.334Z,55.65
2019-05-25T05:22:34.884Z,53.32
2019-05-25T05:25:04.841Z,53.54
2019-05-25T05:27:33.995Z,53.46
2019-05-25T05:30:03.317Z,52.42
2019-05-25T05:32:33.731Z,50.76
2019-05-25T05:35:02.972Z,51.10
2019-05-25T05:37:32.272Z,51.37
2019-05-25T05:40:02.192Z,49.45
2019-05-25T05:42:33.146Z,49.71
2019-05-25T05:45:03.162Z,49.38
2019-05-25T05:47:34.902Z,48.65
2019-05-25T05:50:05.031Z,47.82
2019-05-25T05:52:37.429Z,48.21
2019-05-25T05:55:07.310Z,47.87
2019-05-25T05:57:36.524Z,48.14
2019-05-25T06:00:05.869Z,47.01
2019-05-25T06:02:35.124Z,47.24
2019-05-25T06:05:04.573Z,47.52
2019-05-25T06:07:33.754Z,46.14
2019-05-25T06:10:02.963Z,45.76
2019-05-25T06:12:33.332Z,46.21
2019-05-25T06:15:03.025Z,48.66
2019-05-25T06:17:32.381Z,46.48
2019-05-25T06:20:01.760Z,48.32
2019-05-25T06:22:31.069Z,52.57
2019-05-25T06:25:00.245Z,52.96
2019-05-25T06:27:29.606Z,55.25
2019-05-25T06:29:58.869Z,55.86
2019-05-25T06:32:28.009Z,54.25
2019-05-25T06:34:57.313Z,56.00
2019-05-25T06:37:26.583Z,53.37
2019-05-25T06:39:55.746Z,53.75
2019-05-25T06:42:24.991Z,54.43
2019-05-25T06:44:54.283Z,54.17
2019-05-25T06:47:23.617Z,54.34
2019-05-25T06:49:53.050Z,54.77
2019-05-25T06:52:22.461Z,54.04
2019-05-25T06:54:51.935Z,53.93
2019-05-25T06:57:21.437Z,54.55
2019-05-25T06:59:50.609Z,54.48
2019-05-25T07:02:22.561Z,54.97
2019-05-25T07:04:53.097Z,53.89
2019-05-25T07:07:22.912Z,54.07
2019-05-25T07:09:52.325Z,55.83
2019-05-25T07:12:21.955Z,54.27
2019-05-25T07:14:51.384Z,52.69
2019-05-25T07:17:20.582Z,55.06
2019-05-25T07:19:50.724Z,52.79
2019-05-25T07:22:20.342Z,53.31
2019-05-25T07:24:49.831Z,51.79
2019-05-25T07:27:19.028Z,52.22
2019-05-25T07:29:48.433Z,51.25
2019-05-25T07:32:18.001Z,50.86
2019-05-25T07:34:47.317Z,51.63
2019-05-25T07:37:16.539Z,52.59
2019-05-25T07:39:45.720Z,50.46
2019-05-25T07:42:19.462Z,50.62
2019-05-25T07:44:47.416Z,53.14
2019-05-25T07:47:16.834Z,49.40
2019-05-25T07:49:47.891Z,53.32
2019-05-25T07:52:17.349Z,51.50
2019-05-25T07:54:46.535Z,50.14
2019-05-25T07:57:16.068Z,50.52
2019-05-25T07:59:45.485Z,50.05
2019-05-25T08:02:15.164Z,48.99
2019-05-25T08:04:45.745Z,49.45
2019-05-25T08:07:15.575Z,52.28
2019-05-25T08:09:44.753Z,48.32
2019-05-25T08:12:13.937Z,48.83
2019-05-25T08:14:45.040Z,48.23
2019-05-25T08:17:14.015Z,46.77
2019-05-25T08:19:43.553Z,47.36
2019-05-25T08:22:12.734Z,48.74
2019-05-25T08:24:42.017Z,48.81
2019-05-25T08:27:11.309Z,49.46
2019-05-25T08:29:40.476Z,49.97
2019-05-25T08:32:09.713Z,47.70
2019-05-25T08:34:39.270Z,47.35
2019-05-25T08:37:08.503Z,47.89
2019-05-25T08:39:38.074Z,47.85
2019-05-25T08:42:07.460Z,49.34
2019-05-25T08:44:36.860Z,48.51
2019-05-25T08:47:06.235Z,49.98
2019-05-25T08:49:35.434Z,48.63
2019-05-25T08:52:04.669Z,52.27
2019-05-25T08:54:34.259Z,47.42
2019-05-25T08:57:03.709Z,49.33
2019-05-25T08:59:33.029Z,49.49
2019-05-25T09:02:02.588Z,49.09
2019-05-25T09:04:32.389Z,46.98
2019-05-25T09:07:01.630Z,46.63
2019-05-25T09:09:30.944Z,42.29
2019-05-25T09:12:02.372Z,45.15
2019-05-25T09:14:31.625Z,43.28
2019-05-25T09:17:00.954Z,45.34
2019-05-25T09:19:30.261Z,44.03
2019-05-25T09:22:03.061Z,44.51
2019-05-25T09:24:30.519Z,44.10
2019-05-25T09:27:00.033Z,44.13
2019-05-25T09:29:29.495Z,44.27
2019-05-25T09:31:58.675Z,44.60
2019-05-25T09:34:28.101Z,45.07
2019-05-25T09:36:57.517Z,43.44
2019-05-25T09:39:26.733Z,42.54
2019-05-25T09:41:56.253Z,44.66
2019-05-25T09:44:25.910Z,45.13
2019-05-25T09:46:55.057Z,47.19
2019-05-25T09:49:26.088Z,46.72
2019-05-25T09:51:55.373Z,47.03
2019-05-25T09:54:24.566Z,47.86
2019-05-25T09:56:53.674Z,47.16
2019-05-25T09:59:23.253Z,45.44
2019-05-25T10:01:53.725Z,46.37
2019-05-25T10:04:23.409Z,45.82
2019-05-25T10:06:53.052Z,44.82
2019-05-25T10:09:22.669Z,45.89
2019-05-25T10:11:51.963Z,47.55
2019-05-25T10:14:21.276Z,50.72
2019-05-25T10:16:50.516Z,46.90
2019-05-25T10:19:20.020Z,46.90
2019-05-25T10:21:49.386Z,45.83
2019-05-25T10:24:18.550Z,45.93
2019-05-25T10:26:47.781Z,44.79
2019-05-25T10:29:17.106Z,45.31
2019-05-25T10:31:46.378Z,43.40
2019-05-25T10:34:15.533Z,43.57
2019-05-25T10:36:44.757Z,42.27
2019-05-25T10:39:14.104Z,44.56
2019-05-25T10:41:44.526Z,43.88
2019-05-25T10:44:13.996Z,43.44
2019-05-25T10:46:43.188Z,44.20
2019-05-25T10:49:12.619Z,44.08
2019-05-25T10:51:41.843Z,42.40
2019-05-25T10:54:11.351Z,41.82
2019-05-25T10:56:40.608Z,40.46
2019-05-25T10:59:10.133Z,41.80
2019-05-25T11:01:39.598Z,41.09
2019-05-25T11:04:08.834Z,38.75
2019-05-25T11:06:38.187Z,38.52
2019-05-25T11:09:07.667Z,37.53
2019-05-25T11:11:36.943Z,38.53
2019-05-25T11:14:06.292Z,39.29
2019-05-25T11:16:35.746Z,39.59
2019-05-25T11:19:04.970Z,38.16
2019-05-25T11:21:34.607Z,39.21
2019-05-25T11:24:03.919Z,38.11
2019-05-25T11:26:33.234Z,38.95
2019-05-25T11:29:03.789Z,38.77
2019-05-25T11:31:33.320Z,41.62
2019-05-25T11:34:02.744Z,38.88
2019-05-25T11:36:32.587Z,36.56
2019-05-25T11:39:01.914Z,39.32
2019-05-25T11:41:32.603Z,40.39
2019-05-25T11:44:01.795Z,42.68
2019-05-25T11:46:31.423Z,42.23
2019-05-25T11:49:00.562Z,38.84
2019-05-25T11:51:29.847Z,38.74
2019-05-25T11:53:59.217Z,37.69
2019-05-25T11:56:28.528Z,40.26
2019-05-25T11:58:57.841Z,38.41
2019-05-25T12:01:27.189Z,38.93
2019-05-25T12:03:56.586Z,38.94
2019-05-25T12:06:25.984Z,37.92
2019-05-25T12:08:55.242Z,37.78
2019-05-25T12:11:25.785Z,41.10
2019-05-25T12:16:23.121Z,37.44
2019-05-25T12:18:52.495Z,32.96
2019-05-25T12:21:21.681Z,34.89
2019-05-25T12:23:51.177Z,37.01
2019-05-25T12:26:20.393Z,36.37
2019-05-25T12:28:49.831Z,35.87
2019-05-25T12:31:19.382Z,37.02
2019-05-25T12:33:48.625Z,37.53
2019-05-25T12:36:17.979Z,35.41
2019-05-25T12:38:48.071Z,31.50
2019-05-25T12:41:17.382Z,32.65
2019-05-25T12:43:46.599Z,36.05
2019-05-25T12:46:16.027Z,35.58
2019-05-25T12:48:45.433Z,38.00
2019-05-25T12:51:17.742Z,37.33
2019-05-25T12:53:46.088Z,35.44
2019-05-25T12:56:15.382Z,35.85
2019-05-25T12:58:44.765Z,37.92
2019-05-25T13:01:14.080Z,36.94
2019-05-25T13:03:43.547Z,32.94
2019-05-25T13:06:12.824Z,32.69
2019-05-25T13:08:44.014Z,33.81
2019-05-25T13:11:13.086Z,33.95
2019-05-25T13:13:44.400Z,35.77
2019-05-25T13:16:14.038Z,37.33
2019-05-25T13:18:43.654Z,35.67
2019-05-25T13:21:12.816Z,37.89
2019-05-25T13:23:42.521Z,38.45
2019-05-25T13:26:11.849Z,39.08
2019-05-25T13:28:41.221Z,38.50
2019-05-25T13:31:12.065Z,37.38
2019-05-25T13:33:41.629Z,38.62
2019-05-25T13:36:10.911Z,39.51
2019-05-25T13:38:40.406Z,40.16
2019-05-25T13:41:09.495Z,39.53
2019-05-25T13:43:38.770Z,39.39
2019-05-25T13:46:07.854Z,39.71
2019-05-25T13:48:37.270Z,41.49
2019-05-25T13:51:06.655Z,40.39
2019-05-25T13:53:36.160Z,39.79
2019-05-25T13:56:05.297Z,39.19
2019-05-25T13:58:39.021Z,37.45
2019-05-25T14:01:06.848Z,38.21
2019-05-25T14:03:36.292Z,39.62
2019-05-25T14:06:05.664Z,39.85
2019-05-25T14:08:35.938Z,40.92
2019-05-25T14:11:06.990Z,42.12
2019-05-25T14:13:38.786Z,41.08
2019-05-25T14:16:09.856Z,39.06
2019-05-25T14:18:40.818Z,38.86
2019-05-25T14:21:11.529Z,39.50
2019-05-25T14:23:43.044Z,38.59
2019-05-25T14:26:13.983Z,39.89
2019-05-25T14:28:44.852Z,39.80
2019-05-25T14:31:15.579Z,42.25
2019-05-25T14:33:46.511Z,41.88
2019-05-25T14:36:17.582Z,42.40
2019-05-25T14:38:48.421Z,39.51
2019-05-25T14:41:19.039Z,41.55
2019-05-25T14:43:49.882Z,40.52
2019-05-25T14:46:27.980Z,40.45
2019-05-25T14:48:53.392Z,40.60
2019-05-25T14:51:24.329Z,41.00
2019-05-25T14:53:55.249Z,41.90
2019-05-25T14:56:26.049Z,41.70
2019-05-25T14:58:57.874Z,42.19
2019-05-25T15:01:28.698Z,41.44
2019-05-25T15:03:59.672Z,43.64
2019-05-25T15:06:30.609Z,44.03
2019-05-25T15:09:01.526Z,42.75
2019-05-25T15:11:34.095Z,41.77
2019-05-25T15:14:06.333Z,41.24
2019-05-25T15:16:37.491Z,42.17
2019-05-25T15:19:08.335Z,40.86
2019-05-25T15:21:39.461Z,40.90
2019-05-25T15:24:10.629Z,41.22
2019-05-25T15:26:42.491Z,41.81
2019-05-25T15:29:13.614Z,42.04
2019-05-25T15:31:44.369Z,42.65
2019-05-25T15:34:15.482Z,43.97
2019-05-25T15:36:46.313Z,42.77
2019-05-25T15:39:17.139Z,42.80
2019-05-25T15:41:47.935Z,41.45
2019-05-25T15:44:18.893Z,41.63
2019-05-25T15:46:49.357Z,42.39
2019-05-25T15:49:20.731Z,42.91
2019-05-25T15:51:51.947Z,42.40
2019-05-25T15:54:23.036Z,43.66
2019-05-25T15:56:53.770Z,42.07
2019-05-25T15:59:24.735Z,42.00
2019-05-25T16:01:55.763Z,41.20
2019-05-25T16:04:26.493Z,42.00
2019-05-25T16:06:57.543Z,42.52
2019-05-25T16:09:28.597Z,42.98
2019-05-25T16:11:58.907Z,44.12
2019-05-25T16:14:29.542Z,44.15
2019-05-25T16:17:00.425Z,43.43
2019-05-25T16:19:31.229Z,45.22
2019-05-25T16:22:02.644Z,45.19
2019-05-25T16:24:33.296Z,44.36
2019-05-25T16:27:03.889Z,44.42
2019-05-25T16:29:34.539Z,44.22
2019-05-25T16:32:05.456Z,43.67
2019-05-25T16:34:36.004Z,44.05
2019-05-25T16:37:06.818Z,45.85
2019-05-25T16:39:37.649Z,45.15
2019-05-25T16:42:08.186Z,45.10
2019-05-25T16:44:38.820Z,45.01
2019-05-25T16:47:09.350Z,45.99
2019-05-25T16:49:40.576Z,46.72
2019-05-25T16:52:11.141Z,47.20
2019-05-25T16:54:41.751Z,47.37
2019-05-25T16:57:12.333Z,45.76
2019-05-25T16:59:42.759Z,46.11
2019-05-25T17:02:13.450Z,46.39
2019-05-25T17:04:43.963Z,46.41
2019-05-25T17:07:14.366Z,45.18
2019-05-25T17:09:44.623Z,46.78
2019-05-25T17:12:14.991Z,46.87
2019-05-25T17:14:45.568Z,46.87
2019-05-25T17:17:16.190Z,46.85
2019-05-25T17:19:46.725Z,46.95
2019-05-25T17:22:17.397Z,46.67
2019-05-25T17:24:48.025Z,46.49
2019-05-25T17:27:18.367Z,48.13
2019-05-25T17:29:48.979Z,47.84
2019-05-25T17:32:20.663Z,48.33
2019-05-25T17:34:52.238Z,47.68
2019-05-25T17:37:21.555Z,47.38
2019-05-25T17:39:50.670Z,47.53
2019-05-25T17:42:20.840Z,48.07
2019-05-25T17:44:50.006Z,48.09
2019-05-25T17:47:19.246Z,48.37
2019-05-25T17:49:48.443Z,48.37
2019-05-25T17:52:17.673Z,47.73
2019-05-25T17:54:46.779Z,48.05
2019-05-25T17:57:16.074Z,48.73
2019-05-25T17:59:45.184Z,49.26
2019-05-25T18:02:14.312Z,48.49
2019-05-25T18:04:43.443Z,48.81
2019-05-25T18:07:12.784Z,48.60
2019-05-25T18:09:41.882Z,48.04
2019-05-25T18:12:11.014Z,47.98
2019-05-25T18:14:40.221Z,48.41
2019-05-25T18:17:09.433Z,48.56
2019-05-25T18:19:38.661Z,48.28
2019-05-25T18:22:07.843Z,48.47
2019-05-25T18:24:37.075Z,48.09
2019-05-25T18:27:06.404Z,47.63
2019-05-25T18:29:35.848Z,47.92
2019-05-25T18:32:05.079Z,48.87
2019-05-25T18:34:34.272Z,49.00
2019-05-25T18:37:03.637Z,47.62
2019-05-25T18:39:33.031Z,49.28
2019-05-25T18:42:03.800Z,48.11
2019-05-25T18:44:33.047Z,48.63
2019-05-25T18:47:02.235Z,47.95
2019-05-25T18:49:31.478Z,48.73
2019-05-25T18:52:00.738Z,49.50
2019-05-25T18:54:29.951Z,49.77
2019-05-25T18:56:59.203Z,49.06
2019-05-25T18:59:28.438Z,49.56
2019-05-25T19:01:57.711Z,49.40
2019-05-25T19:04:43.560Z,49.30
2019-05-25T19:06:58.110Z,49.49
2019-05-25T19:09:27.326Z,50.62
2019-05-25T19:11:57.869Z,50.95
2019-05-25T19:14:27.066Z,50.10
2019-05-25T19:16:56.221Z,50.08
2019-05-25T19:19:25.551Z,50.42
2019-05-25T19:21:54.672Z,51.74
2019-05-25T19:24:23.932Z,50.70
2019-05-25T19:26:53.046Z,50.89
2019-05-25T19:29:23.279Z,50.72
2019-05-25T19:31:52.482Z,50.53
2019-05-25T19:34:21.708Z,50.31
2019-05-25T19:36:50.947Z,51.02
2019-05-25T19:39:20.312Z,51.58
2019-05-25T19:41:49.596Z,50.69
2019-05-25T19:44:18.833Z,49.95
2019-05-25T19:46:47.936Z,50.44
2019-05-25T19:49:17.185Z,51.22
2019-05-25T19:51:46.398Z,50.97
2019-05-25T19:54:16.889Z,50.74
2019-05-25T19:56:46.045Z,50.62
2019-05-25T19:59:15.370Z,51.11
2019-05-25T20:01:44.487Z,51.24
2019-05-25T20:04:13.811Z,52.04
2019-05-25T20:06:43.187Z,51.90
2019-05-25T20:09:13.430Z,51.75
2019-05-25T20:11:42.688Z,52.15
2019-05-25T20:14:11.900Z,51.44
2019-05-25T20:16:41.128Z,51.42
2019-05-25T20:19:10.375Z,51.47
2019-05-25T20:21:39.732Z,52.03
2019-05-25T20:24:08.894Z,51.71
2019-05-25T20:26:38.191Z,52.22
2019-05-25T20:29:07.403Z,52.47
2019-05-25T20:31:36.586Z,53.33
2019-05-25T20:34:06.852Z,54.00
2019-05-25T20:36:36.047Z,53.87
2019-05-25T20:39:06.320Z,54.09
2019-05-25T20:41:35.599Z,54.25
2019-05-25T20:44:04.869Z,54.19
2019-05-25T20:46:34.065Z,54.08
2019-05-25T20:49:03.334Z,53.90
2019-05-25T20:51:32.538Z,54.67
2019-05-25T20:54:01.755Z,53.66
2019-05-25T20:56:31.844Z,54.05
2019-05-25T20:59:01.101Z,53.97
2019-05-25T21:01:31.382Z,54.77
2019-05-25T21:04:00.594Z,54.18
2019-05-25T21:06:29.817Z,54.04
2019-05-25T21:08:58.947Z,53.72
2019-05-25T21:11:28.246Z,54.30
2019-05-25T21:13:57.711Z,55.59
2019-05-25T21:16:26.936Z,55.11
2019-05-25T21:18:56.162Z,55.68
2019-05-25T21:21:25.406Z,55.60
2019-05-25T21:23:54.719Z,55.74
2019-05-25T21:26:24.106Z,55.29
2019-05-25T21:28:53.243Z,55.50
2019-05-25T21:31:23.881Z,55.77
2019-05-25T21:33:53.257Z,56.35
2019-05-25T21:36:22.444Z,55.49
2019-05-25T21:38:51.653Z,55.92
2019-05-25T21:41:20.754Z,55.77
2019-05-25T21:43:50.040Z,56.25
2019-05-25T21:46:20.264Z,56.42
2019-05-25T21:48:49.518Z,55.79
2019-05-25T21:51:18.734Z,55.75
2019-05-25T21:53:47.997Z,55.54
2019-05-25T21:56:17.163Z,55.57
2019-05-25T21:58:46.397Z,55.50
2019-05-25T22:01:15.689Z,56.10
2019-05-25T22:03:44.935Z,55.86
2019-05-25T22:06:23.725Z,55.95
2019-05-25T22:08:45.020Z,56.00
2019-05-25T22:11:14.226Z,56.25
2019-05-25T22:13:43.435Z,56.60
2019-05-25T22:16:12.716Z,57.85
2019-05-25T22:18:41.967Z,58.02
2019-05-25T22:21:11.160Z,57.33
2019-05-25T22:23:40.312Z,57.60
2019-05-25T22:26:09.479Z,57.35
2019-05-25T22:28:44.854Z,57.71
2019-05-25T22:31:10.432Z,57.71
2019-05-25T22:33:39.664Z,57.44
2019-05-25T22:36:08.834Z,57.78
2019-05-25T22:38:38.038Z,57.66
2019-05-25T22:41:07.167Z,57.78
2019-05-25T22:43:36.405Z,57.96
2019-05-25T22:46:05.578Z,58.06
2019-05-25T22:48:34.831Z,58.03
2019-05-25T22:51:04.021Z,58.37
2019-05-25T22:53:33.225Z,58.63
2019-05-25T22:56:02.435Z,59.01
2019-05-25T22:58:31.619Z,59.06
2019-05-25T23:01:00.742Z,58.91
2019-05-25T23:03:29.861Z,58.62
2019-05-25T23:05:59.114Z,58.84
2019-05-25T23:08:28.311Z,59.08
2019-05-25T23:10:57.454Z,59.34
2019-05-25T23:13:26.710Z,59.36
2019-05-25T23:15:55.923Z,59.26
2019-05-25T23:18:25.129Z,59.44
2019-05-25T23:20:54.454Z,59.33
2019-05-25T23:23:23.685Z,59.82
2019-05-25T23:25:52.832Z,58.99
2019-05-25T23:28:22.047Z,58.70
2019-05-25T23:30:51.273Z,58.56
2019-05-25T23:33:20.408Z,58.42
2019-05-25T23:35:49.611Z,58.63
2019-05-25T23:38:18.860Z,58.90
2019-05-25T23:40:47.980Z,58.65
2019-05-25T23:43:18.114Z,59.77
2019-05-25T23:45:47.402Z,59.23
2019-05-25T23:48:16.537Z,58.83
2019-05-25T23:50:45.782Z,58.69
2019-05-25T23:53:14.934Z,58.84
2019-05-25T23:55:44.076Z,58.81
2019-05-25T23:58:13.212Z,58.72
